Barfleur — FNIE — position and weather

sailwx.info

Track history (hours):
 
Tides and Currents Weather Stations Pressure Air Temp Water Temp Dewpoint Dewpoint Depression Visibility Wind Speed Wind Dir Waves Ship Positions

Barfleur

Operator: Brittany Ferries

Last reported at 2015-Jul-31 04:33 UTC. Time now 2015-Jul-31 05:05 UTC.
Position N 50°42' W 001°59'.

Length 158 m; draft 5 m.

Type: Passenger vessel. MMSI: 227289000.

Date/timePositionNaut miles runAvg speedWind from/ knotsBaromVisibWave heightAir tempDewpointWater temp
2015-Jul-31 04:33N 50°42' W 001°59'0 0.0
2015-Jul-31 03:33N 50°42' W 001°59'0 0.0
2015-Jul-31 02:33N 50°42' W 001°59'0 0.0
2015-Jul-31 01:33N 50°42' W 001°59'0 0.0
2015-Jul-31 00:33N 50°42' W 001°59'0 0.0
2015-Jul-30 23:33N 50°42' W 001°59'0 0.0
2015-Jul-30 22:33N 50°42' W 001°59'0 0.0
2015-Jul-30 21:33N 50°42' W 001°59'1 1.0
2015-Jul-30 20:33N 50°42' W 001°58'1515.4
2015-Jul-30 19:33N 50°27' W 001°51'8 0.7
2015-Jul-30 08:33N 50°35' W 001°53'8 8.1
2015-Jul-30 07:33N 50°42' W 001°59'0 0.0
2015-Jul-30 06:33N 50°42' W 001°59'0 0.0
2015-Jul-30 05:33N 50°42' W 001°59'0 0.0
2015-Jul-30 04:33N 50°42' W 001°59'0 0.0
2015-Jul-30 03:33N 50°42' W 001°59'0 0.0
2015-Jul-30 02:33N 50°42' W 001°59'0 0.0
2015-Jul-30 01:33N 50°42' W 001°59'0 0.0
2015-Jul-30 00:33N 50°42' W 001°59'0 0.0
2015-Jul-29 23:33N 50°42' W 001°59'0 0.0
2015-Jul-29 22:33N 50°42' W 001°59'0 0.0
2015-Jul-29 21:33N 50°42' W 001°59'3 3.1
2015-Jul-29 20:33N 50°40' W 001°56'1515.4
2015-Jul-29 19:34N 50°25' W 001°51'9 0.8
2015-Jul-29 08:33N 50°34' W 001°53'10 9.6
2015-Jul-29 07:33N 50°42' W 001°59'0 0.0
2015-Jul-29 06:33N 50°42' W 001°59'0 0.0
2015-Jul-29 05:33N 50°42' W 001°59'0 0.0
2015-Jul-29 04:33N 50°42' W 001°59'0 0.0
2015-Jul-29 03:33N 50°42' W 001°59'0 0.0
2015-Jul-29 02:33N 50°42' W 001°59'0 0.0
2015-Jul-29 01:33N 50°42' W 001°59'0 0.0
2015-Jul-29 00:33N 50°42' W 001°59'0 0.0
2015-Jul-28 23:33N 50°42' W 001°59'0 0.0
2015-Jul-28 22:33N 50°42' W 001°59'0 0.0
2015-Jul-28 21:33N 50°42' W 001°59'3 2.7
2015-Jul-28 20:33N 50°41' W 001°56'1616.1
2015-Jul-28 19:33N 50°25' W 001°49'7 0.6
2015-Jul-28 08:27N 50°32' W 001°53'1112.6
2015-Jul-28 07:33N 50°42' W 001°59'0 0.0
2015-Jul-28 06:33N 50°42' W 001°59'0 0.0
2015-Jul-28 05:33N 50°42' W 001°59'0 0.0
2015-Jul-28 04:33N 50°42' W 001°59'0 0.0
2015-Jul-28 03:33N 50°42' W 001°59'0 0.0
2015-Jul-28 02:33N 50°42' W 001°59'0 0.0
2015-Jul-28 01:33N 50°42' W 001°59'0 0.0
2015-Jul-28 00:33N 50°42' W 001°59'0 0.0
2015-Jul-27 23:33N 50°42' W 001°59'0 0.0
2015-Jul-27 22:33N 50°42' W 001°59'0 0.0
2015-Jul-27 21:33N 50°42' W 001°59'1 1.3
2015-Jul-27 20:33N 50°42' W 001°58'1414.4
2015-Jul-27 19:33N 50°28' W 001°50'2 0.2
2015-Jul-27 08:33N 50°30' W 001°53'1313.1
2015-Jul-27 07:33N 50°42' W 001°59'0 0.1
2015-Jul-27 06:33N 50°42' W 001°59'0 0.0
2015-Jul-27 05:33N 50°42' W 001°59'0 0.0
2015-Jul-27 04:33N 50°42' W 001°59'0 0.0
2015-Jul-27 03:33N 50°42' W 001°59'0 0.0
2015-Jul-27 02:33N 50°42' W 001°59'0 0.0
2015-Jul-27 01:33N 50°42' W 001°59'0 0.0
2015-Jul-27 00:33N 50°42' W 001°59'0 0.0
2015-Jul-26 23:33N 50°42' W 001°59'0 0.0
2015-Jul-26 22:33N 50°42' W 001°59'0 0.0
2015-Jul-26 21:33N 50°42' W 001°59'0 0.1
2015-Jul-26 20:33N 50°42' W 001°60'1111.5
2015-Jul-26 19:34N 50°32' W 001°52'1 0.1
2015-Jul-26 08:33N 50°32' W 001°51'1212.0
2015-Jul-26 07:33N 50°42' W 001°59'0 0.1
2015-Jul-26 06:33N 50°42' W 001°59'0 0.0
2015-Jul-26 05:33N 50°42' W 001°59'0 0.0
2015-Jul-26 04:33N 50°42' W 001°59'0 0.0
2015-Jul-26 03:33N 50°42' W 001°59'0 0.0
2015-Jul-26 02:33N 50°42' W 001°59'0 0.0
2015-Jul-26 01:33N 50°42' W 001°59'0 0.0
2015-Jul-26 00:33N 50°42' W 001°59'0 0.0
2015-Jul-25 23:33N 50°42' W 001°59'0 0.0
2015-Jul-25 22:33N 50°42' W 001°59'0 0.0
2015-Jul-25 21:33N 50°42' W 001°59'0 0.4
2015-Jul-25 20:33N 50°42' W 001°59'1212.4
2015-Jul-25 19:34N 50°31' W 001°50'1 0.1
2015-Jul-25 08:25N 50°32' W 001°52'1113.2
2015-Jul-25 07:33N 50°42' W 001°59'0 0.1
2015-Jul-25 06:33N 50°42' W 001°59'0 0.0
2015-Jul-25 05:33N 50°42' W 001°59'0 0.0
2015-Jul-25 04:33N 50°42' W 001°59'0 0.0
2015-Jul-25 03:33N 50°42' W 001°59'0 0.0
2015-Jul-25 02:33N 50°42' W 001°59'0 0.0
2015-Jul-25 01:33N 50°42' W 001°59'0 0.0
2015-Jul-25 00:33N 50°42' W 001°59'0 0.0
2015-Jul-24 23:33N 50°42' W 001°59'0 0.0
2015-Jul-24 22:33N 50°42' W 001°59'0 0.0
2015-Jul-24 21:33N 50°42' W 001°59'1 0.5
2015-Jul-24 20:33N 50°42' W 001°59'1212.0
2015-Jul-24 19:33N 50°31' W 001°52'2 0.2
2015-Jul-24 08:33N 50°33' W 001°53'1110.6
2015-Jul-24 07:33N 50°42' W 001°59'0 0.0
2015-Jul-24 06:33N 50°42' W 001°59'0 0.0
2015-Jul-24 05:33N 50°42' W 001°59'0 0.0
2015-Jul-24 04:33N 50°42' W 001°59'0 0.0
2015-Jul-24 03:33N 50°42' W 001°59'0 0.0
2015-Jul-24 02:33N 50°42' W 001°59'0 0.0
2015-Jul-24 01:33N 50°42' W 001°59'0 0.0
2015-Jul-24 00:33N 50°42' W 001°59'0 0.0
2015-Jul-23 23:33N 50°42' W 001°59'0 0.0
2015-Jul-23 22:33N 50°42' W 001°59'0 0.0
2015-Jul-23 21:33N 50°42' W 001°59'1 0.8
2015-Jul-23 20:33N 50°42' W 001°58'1312.6
2015-Jul-23 19:33N 50°30' W 001°52'5 0.5
2015-Jul-23 08:33N 50°35' W 001°53'8 8.1
2015-Jul-23 07:33N 50°42' W 001°59'0 0.0
2015-Jul-23 06:33N 50°42' W 001°59'0 0.0
2015-Jul-23 05:33N 50°42' W 001°59'0 0.0
2015-Jul-23 04:34N 50°42' W 001°59'0 0.0
2015-Jul-23 03:33N 50°42' W 001°59'0 0.0
2015-Jul-23 02:33N 50°42' W 001°59'0 0.0
2015-Jul-23 01:33N 50°42' W 001°59'0 0.0
2015-Jul-23 00:33N 50°42' W 001°59'0 0.0
2015-Jul-22 23:33N 50°42' W 001°59'0 0.0
2015-Jul-22 22:33N 50°42' W 001°59'0 0.0
2015-Jul-22 21:33N 50°42' W 001°59'1 1.4
2015-Jul-22 20:34N 50°42' W 001°57'1414.0
2015-Jul-22 19:33N 50°28' W 001°52'3 0.3
2015-Jul-22 08:32N 50°32' W 001°52'1212.1
2015-Jul-22 07:33N 50°42' W 001°59'0 0.0
2015-Jul-22 06:33N 50°42' W 001°59'0 0.0
2015-Jul-22 05:33N 50°42' W 001°59'0 0.0
2015-Jul-22 04:33N 50°42' W 001°59'0 0.0
2015-Jul-22 03:33N 50°42' W 001°59'0 0.0
2015-Jul-22 02:33N 50°42' W 001°59'0 0.0
2015-Jul-22 01:33N 50°42' W 001°59'0 0.0
2015-Jul-22 00:33N 50°42' W 001°59'0 0.0
2015-Jul-21 23:34N 50°42' W 001°59'0 0.0
2015-Jul-21 22:33N 50°42' W 001°59'0 0.0
2015-Jul-21 21:33N 50°42' W 001°59'3 2.6
2015-Jul-21 20:33N 50°41' W 001°56'1616.5
2015-Jul-21 19:33N 50°25' W 001°50'1 0.1
2015-Jul-21 09:10N 50°24' W 001°51'1118.5
2015-Jul-21 08:33N 50°35' W 001°53'9 8.5
2015-Jul-21 07:33N 50°42' W 001°59'0 0.0
2015-Jul-21 06:33N 50°42' W 001°59'0 0.0
2015-Jul-21 05:33N 50°42' W 001°59'  
Track history (hours):
 
Tides and Currents Weather Stations Pressure Air Temp Water Temp Dewpoint Dewpoint Depression Visibility Wind Speed Wind Dir Waves Ship Positions

Barfleur

Operator: Brittany Ferries

Last reported at 2015-Jul-31 04:33 UTC. Time now 2015-Jul-31 05:05 UTC.
Position N 50°42' W 001°59'.

Length 158 m; draft 5 m.

Type: Passenger vessel. MMSI: 227289000.

Date/timePositionNaut miles runAvg speedWind from/ knotsBaromVisibWave heightAir tempDewpointWater temp
2015-Jul-31 04:33N 50°42' W 001°59'0 0.0
2015-Jul-31 03:33N 50°42' W 001°59'0 0.0
2015-Jul-31 02:33N 50°42' W 001°59'0 0.0
2015-Jul-31 01:33N 50°42' W 001°59'0 0.0
2015-Jul-31 00:33N 50°42' W 001°59'0 0.0
2015-Jul-30 23:33N 50°42' W 001°59'0 0.0
2015-Jul-30 22:33N 50°42' W 001°59'0 0.0
2015-Jul-30 21:33N 50°42' W 001°59'1 1.0
2015-Jul-30 20:33N 50°42' W 001°58'1515.4
2015-Jul-30 19:33N 50°27' W 001°51'8 0.7
2015-Jul-30 08:33N 50°35' W 001°53'8 8.1
2015-Jul-30 07:33N 50°42' W 001°59'0 0.0
2015-Jul-30 06:33N 50°42' W 001°59'0 0.0
2015-Jul-30 05:33N 50°42' W 001°59'0 0.0
2015-Jul-30 04:33N 50°42' W 001°59'0 0.0
2015-Jul-30 03:33N 50°42' W 001°59'0 0.0
2015-Jul-30 02:33N 50°42' W 001°59'0 0.0
2015-Jul-30 01:33N 50°42' W 001°59'0 0.0
2015-Jul-30 00:33N 50°42' W 001°59'0 0.0
2015-Jul-29 23:33N 50°42' W 001°59'0 0.0
2015-Jul-29 22:33N 50°42' W 001°59'0 0.0
2015-Jul-29 21:33N 50°42' W 001°59'3 3.1
2015-Jul-29 20:33N 50°40' W 001°56'1515.4
2015-Jul-29 19:34N 50°25' W 001°51'9 0.8
2015-Jul-29 08:33N 50°34' W 001°53'10 9.6
2015-Jul-29 07:33N 50°42' W 001°59'0 0.0
2015-Jul-29 06:33N 50°42' W 001°59'0 0.0
2015-Jul-29 05:33N 50°42' W 001°59'0 0.0
2015-Jul-29 04:33N 50°42' W 001°59'0 0.0
2015-Jul-29 03:33N 50°42' W 001°59'0 0.0
2015-Jul-29 02:33N 50°42' W 001°59'0 0.0
2015-Jul-29 01:33N 50°42' W 001°59'0 0.0
2015-Jul-29 00:33N 50°42' W 001°59'0 0.0
2015-Jul-28 23:33N 50°42' W 001°59'0 0.0
2015-Jul-28 22:33N 50°42' W 001°59'0 0.0
2015-Jul-28 21:33N 50°42' W 001°59'3 2.7
2015-Jul-28 20:33N 50°41' W 001°56'1616.1
2015-Jul-28 19:33N 50°25' W 001°49'7 0.6
2015-Jul-28 08:27N 50°32' W 001°53'1112.6
2015-Jul-28 07:33N 50°42' W 001°59'0 0.0
2015-Jul-28 06:33N 50°42' W 001°59'0 0.0
2015-Jul-28 05:33N 50°42' W 001°59'0 0.0
2015-Jul-28 04:33N 50°42' W 001°59'0 0.0
2015-Jul-28 03:33N 50°42' W 001°59'0 0.0
2015-Jul-28 02:33N 50°42' W 001°59'0 0.0
2015-Jul-28 01:33N 50°42' W 001°59'0 0.0
2015-Jul-28 00:33N 50°42' W 001°59'0 0.0
2015-Jul-27 23:33N 50°42' W 001°59'0 0.0
2015-Jul-27 22:33N 50°42' W 001°59'0 0.0
2015-Jul-27 21:33N 50°42' W 001°59'1 1.3
2015-Jul-27 20:33N 50°42' W 001°58'1414.4
2015-Jul-27 19:33N 50°28' W 001°50'2 0.2
2015-Jul-27 08:33N 50°30' W 001°53'1313.1
2015-Jul-27 07:33N 50°42' W 001°59'0 0.1
2015-Jul-27 06:33N 50°42' W 001°59'0 0.0
2015-Jul-27 05:33N 50°42' W 001°59'0 0.0
2015-Jul-27 04:33N 50°42' W 001°59'0 0.0
2015-Jul-27 03:33N 50°42' W 001°59'0 0.0
2015-Jul-27 02:33N 50°42' W 001°59'0 0.0
2015-Jul-27 01:33N 50°42' W 001°59'0 0.0
2015-Jul-27 00:33N 50°42' W 001°59'0 0.0
2015-Jul-26 23:33N 50°42' W 001°59'0 0.0
2015-Jul-26 22:33N 50°42' W 001°59'0 0.0
2015-Jul-26 21:33N 50°42' W 001°59'0 0.1
2015-Jul-26 20:33N 50°42' W 001°60'1111.5
2015-Jul-26 19:34N 50°32' W 001°52'1 0.1
2015-Jul-26 08:33N 50°32' W 001°51'1212.0
2015-Jul-26 07:33N 50°42' W 001°59'0 0.1
2015-Jul-26 06:33N 50°42' W 001°59'0 0.0
2015-Jul-26 05:33N 50°42' W 001°59'0 0.0
2015-Jul-26 04:33N 50°42' W 001°59'0 0.0
2015-Jul-26 03:33N 50°42' W 001°59'0 0.0
2015-Jul-26 02:33N 50°42' W 001°59'0 0.0
2015-Jul-26 01:33N 50°42' W 001°59'0 0.0
2015-Jul-26 00:33N 50°42' W 001°59'0 0.0
2015-Jul-25 23:33N 50°42' W 001°59'0 0.0
2015-Jul-25 22:33N 50°42' W 001°59'0 0.0
2015-Jul-25 21:33N 50°42' W 001°59'0 0.4
2015-Jul-25 20:33N 50°42' W 001°59'1212.4
2015-Jul-25 19:34N 50°31' W 001°50'1 0.1
2015-Jul-25 08:25N 50°32' W 001°52'1113.2
2015-Jul-25 07:33N 50°42' W 001°59'0 0.1
2015-Jul-25 06:33N 50°42' W 001°59'0 0.0
2015-Jul-25 05:33N 50°42' W 001°59'0 0.0
2015-Jul-25 04:33N 50°42' W 001°59'0 0.0
2015-Jul-25 03:33N 50°42' W 001°59'0 0.0
2015-Jul-25 02:33N 50°42' W 001°59'0 0.0
2015-Jul-25 01:33N 50°42' W 001°59'0 0.0
2015-Jul-25 00:33N 50°42' W 001°59'0 0.0
2015-Jul-24 23:33N 50°42' W 001°59'0 0.0
2015-Jul-24 22:33N 50°42' W 001°59'0 0.0
2015-Jul-24 21:33N 50°42' W 001°59'1 0.5
2015-Jul-24 20:33N 50°42' W 001°59'1212.0
2015-Jul-24 19:33N 50°31' W 001°52'2 0.2
2015-Jul-24 08:33N 50°33' W 001°53'1110.6
2015-Jul-24 07:33N 50°42' W 001°59'0 0.0
2015-Jul-24 06:33N 50°42' W 001°59'0 0.0
2015-Jul-24 05:33N 50°42' W 001°59'0 0.0
2015-Jul-24 04:33N 50°42' W 001°59'0 0.0
2015-Jul-24 03:33N 50°42' W 001°59'0 0.0
2015-Jul-24 02:33N 50°42' W 001°59'0 0.0
2015-Jul-24 01:33N 50°42' W 001°59'0 0.0
2015-Jul-24 00:33N 50°42' W 001°59'0 0.0
2015-Jul-23 23:33N 50°42' W 001°59'0 0.0
2015-Jul-23 22:33N 50°42' W 001°59'0 0.0
2015-Jul-23 21:33N 50°42' W 001°59'1 0.8
2015-Jul-23 20:33N 50°42' W 001°58'1312.6
2015-Jul-23 19:33N 50°30' W 001°52'5 0.5
2015-Jul-23 08:33N 50°35' W 001°53'8 8.1
2015-Jul-23 07:33N 50°42' W 001°59'0 0.0
2015-Jul-23 06:33N 50°42' W 001°59'0 0.0
2015-Jul-23 05:33N 50°42' W 001°59'0 0.0
2015-Jul-23 04:34N 50°42' W 001°59'0 0.0
2015-Jul-23 03:33N 50°42' W 001°59'0 0.0
2015-Jul-23 02:33N 50°42' W 001°59'0 0.0
2015-Jul-23 01:33N 50°42' W 001°59'0 0.0
2015-Jul-23 00:33N 50°42' W 001°59'0 0.0
2015-Jul-22 23:33N 50°42' W 001°59'0 0.0
2015-Jul-22 22:33N 50°42' W 001°59'0 0.0
2015-Jul-22 21:33N 50°42' W 001°59'1 1.4
2015-Jul-22 20:34N 50°42' W 001°57'1414.0
2015-Jul-22 19:33N 50°28' W 001°52'3 0.3
2015-Jul-22 08:32N 50°32' W 001°52'1212.1
2015-Jul-22 07:33N 50°42' W 001°59'0 0.0
2015-Jul-22 06:33N 50°42' W 001°59'0 0.0
2015-Jul-22 05:33N 50°42' W 001°59'0 0.0
2015-Jul-22 04:33N 50°42' W 001°59'0 0.0
2015-Jul-22 03:33N 50°42' W 001°59'0 0.0
2015-Jul-22 02:33N 50°42' W 001°59'0 0.0
2015-Jul-22 01:33N 50°42' W 001°59'0 0.0
2015-Jul-22 00:33N 50°42' W 001°59'0 0.0
2015-Jul-21 23:34N 50°42' W 001°59'0 0.0
2015-Jul-21 22:33N 50°42' W 001°59'0 0.0
2015-Jul-21 21:33N 50°42' W 001°59'3 2.6
2015-Jul-21 20:33N 50°41' W 001°56'1616.5
2015-Jul-21 19:33N 50°25' W 001°50'1 0.1
2015-Jul-21 09:10N 50°24' W 001°51'1118.5
2015-Jul-21 08:33N 50°35' W 001°53'9 8.5
2015-Jul-21 07:33N 50°42' W 001°59'0 0.0
2015-Jul-21 06:33N 50°42' W 001°59'0 0.0
2015-Jul-21 05:33N 50°42' W 001°59'  

Dump ship's entire track history